sensor_id;sensor_type;location;lat;lon;timestamp;P1;durP1;ratioP1;P2;durP2;ratioP2
13807;SDS011;40769;51.512;5.494;2023-05-07T00:01:15;3.40;;;3.15;;
13807;SDS011;40769;51.512;5.494;2023-05-07T00:03:40;3.58;;;3.28;;
13807;SDS011;40769;51.512;5.494;2023-05-07T00:06:06;3.15;;;2.88;;
13807;SDS011;40769;51.512;5.494;2023-05-07T00:08:32;3.00;;;2.80;;
13807;SDS011;40769;51.512;5.494;2023-05-07T00:10:58;3.00;;;2.80;;
13807;SDS011;40769;51.512;5.494;2023-05-07T00:13:23;2.80;;;2.60;;
13807;SDS011;40769;51.512;5.494;2023-05-07T00:15:49;3.22;;;3.03;;
13807;SDS011;40769;51.512;5.494;2023-05-07T00:18:14;3.40;;;3.13;;
13807;SDS011;40769;51.512;5.494;2023-05-07T00:20:40;3.95;;;3.63;;
13807;SDS011;40769;51.512;5.494;2023-05-07T00:23:06;3.80;;;3.50;;
13807;SDS011;40769;51.512;5.494;2023-05-07T00:25:32;3.70;;;3.40;;
13807;SDS011;40769;51.512;5.494;2023-05-07T00:27:57;3.03;;;2.80;;
13807;SDS011;40769;51.512;5.494;2023-05-07T00:30:28;3.80;;;3.50;;
13807;SDS011;40769;51.512;5.494;2023-05-07T00:32:54;3.10;;;2.90;;
13807;SDS011;40769;51.512;5.494;2023-05-07T00:35:19;2.78;;;2.58;;
13807;SDS011;40769;51.512;5.494;2023-05-07T00:37:45;4.03;;;3.72;;
13807;SDS011;40769;51.512;5.494;2023-05-07T00:40:10;3.78;;;3.47;;
13807;SDS011;40769;51.512;5.494;2023-05-07T00:42:36;2.92;;;2.72;;
13807;SDS011;40769;51.512;5.494;2023-05-07T00:45:03;3.30;;;3.00;;
13807;SDS011;40769;51.512;5.494;2023-05-07T00:47:28;4.50;;;4.10;;
13807;SDS011;40769;51.512;5.494;2023-05-07T00:49:54;3.42;;;3.13;;
13807;SDS011;40769;51.512;5.494;2023-05-07T00:52:21;4.13;;;3.83;;
13807;SDS011;40769;51.512;5.494;2023-05-07T00:54:50;4.70;;;4.30;;
13807;SDS011;40769;51.512;5.494;2023-05-07T00:57:17;3.60;;;3.30;;
13807;SDS011;40769;51.512;5.494;2023-05-07T00:59:42;3.45;;;3.15;;
13807;SDS011;40769;51.512;5.494;2023-05-07T01:02:08;2.95;;;2.75;;
13807;SDS011;40769;51.512;5.494;2023-05-07T01:04:33;3.10;;;2.90;;
13807;SDS011;40769;51.512;5.494;2023-05-07T01:07:00;3.15;;;2.85;;
13807;SDS011;40769;51.512;5.494;2023-05-07T01:09:26;3.08;;;2.88;;
13807;SDS011;40769;51.512;5.494;2023-05-07T01:11:53;3.80;;;3.33;;
13807;SDS011;40769;51.512;5.494;2023-05-07T01:14:20;3.75;;;3.45;;
13807;SDS011;40769;51.512;5.494;2023-05-07T01:16:46;4.45;;;4.15;;
13807;SDS011;40769;51.512;5.494;2023-05-07T01:19:13;4.35;;;3.95;;
13807;SDS011;40769;51.512;5.494;2023-05-07T01:21:43;5.60;;;4.85;;
13807;SDS011;40769;51.512;5.494;2023-05-07T01:24:11;4.70;;;4.30;;
13807;SDS011;40769;51.512;5.494;2023-05-07T01:26:38;4.05;;;3.75;;
13807;SDS011;40769;51.512;5.494;2023-05-07T01:29:04;5.03;;;4.72;;
13807;SDS011;40769;51.512;5.494;2023-05-07T01:31:29;6.53;;;5.93;;
13807;SDS011;40769;51.512;5.494;2023-05-07T01:33:56;6.22;;;5.72;;
13807;SDS011;40769;51.512;5.494;2023-05-07T01:36:24;7.32;;;6.72;;
13807;SDS011;40769;51.512;5.494;2023-05-07T01:38:52;6.00;;;5.45;;
13807;SDS011;40769;51.512;5.494;2023-05-07T01:41:18;4.70;;;4.30;;
13807;SDS011;40769;51.512;5.494;2023-05-07T01:43:44;4.13;;;3.83;;
13807;SDS011;40769;51.512;5.494;2023-05-07T01:46:12;3.20;;;3.00;;
13807;SDS011;40769;51.512;5.494;2023-05-07T01:48:38;3.30;;;3.10;;
13807;SDS011;40769;51.512;5.494;2023-05-07T01:51:05;3.63;;;3.33;;
13807;SDS011;40769;51.512;5.494;2023-05-07T01:53:40;4.47;;;4.07;;
13807;SDS011;40769;51.512;5.494;2023-05-07T01:56:06;3.60;;;3.30;;
13807;SDS011;40769;51.512;5.494;2023-05-07T01:58:32;3.70;;;3.45;;
13807;SDS011;40769;51.512;5.494;2023-05-07T02:00:58;5.20;;;4.80;;
13807;SDS011;40769;51.512;5.494;2023-05-07T02:03:23;4.25;;;3.85;;
13807;SDS011;40769;51.512;5.494;2023-05-07T02:05:49;4.72;;;4.32;;
13807;SDS011;40769;51.512;5.494;2023-05-07T02:08:15;4.57;;;4.20;;
13807;SDS011;40769;51.512;5.494;2023-05-07T02:10:40;5.00;;;4.60;;
13807;SDS011;40769;51.512;5.494;2023-05-07T02:13:06;6.65;;;6.15;;
13807;SDS011;40769;51.512;5.494;2023-05-07T02:15:31;7.85;;;7.25;;
13807;SDS011;40769;51.512;5.494;2023-05-07T02:17:58;6.78;;;6.28;;
13807;SDS011;40769;51.512;5.494;2023-05-07T02:20:31;4.40;;;4.10;;
13807;SDS011;40769;51.512;5.494;2023-05-07T02:22:57;3.97;;;3.67;;
13807;SDS011;40769;51.512;5.494;2023-05-07T02:25:22;4.82;;;4.32;;
13807;SDS011;40769;51.512;5.494;2023-05-07T02:27:48;4.30;;;4.00;;
13807;SDS011;40769;51.512;5.494;2023-05-07T02:30:14;4.57;;;4.18;;
13807;SDS011;40769;51.512;5.494;2023-05-07T02:32:39;7.05;;;6.55;;
13807;SDS011;40769;51.512;5.494;2023-05-07T02:35:05;6.03;;;5.53;;
13807;SDS011;40769;51.512;5.494;2023-05-07T02:37:31;5.25;;;4.85;;
13807;SDS011;40769;51.512;5.494;2023-05-07T02:39:57;5.15;;;4.70;;
13807;SDS011;40769;51.512;5.494;2023-05-07T02:42:22;4.80;;;4.50;;
13807;SDS011;40769;51.512;5.494;2023-05-07T02:44:48;4.60;;;4.30;;
13807;SDS011;40769;51.512;5.494;2023-05-07T02:47:14;5.47;;;5.07;;
13807;SDS011;40769;51.512;5.494;2023-05-07T02:49:40;8.35;;;7.65;;
13807;SDS011;40769;51.512;5.494;2023-05-07T02:52:06;7.75;;;7.15;;
13807;SDS011;40769;51.512;5.494;2023-05-07T02:54:32;5.75;;;5.35;;
13807;SDS011;40769;51.512;5.494;2023-05-07T02:56:58;7.85;;;7.25;;
13807;SDS011;40769;51.512;5.494;2023-05-07T02:59:25;5.70;;;5.30;;
13807;SDS011;40769;51.512;5.494;2023-05-07T03:01:51;5.05;;;4.65;;
13807;SDS011;40769;51.512;5.494;2023-05-07T03:04:17;4.78;;;4.47;;
13807;SDS011;40769;51.512;5.494;2023-05-07T03:06:42;4.75;;;4.38;;
13807;SDS011;40769;51.512;5.494;2023-05-07T03:09:08;6.97;;;6.38;;
13807;SDS011;40769;51.512;5.494;2023-05-07T03:11:34;7.13;;;6.57;;
13807;SDS011;40769;51.512;5.494;2023-05-07T03:14:00;5.90;;;5.50;;
13807;SDS011;40769;51.512;5.494;2023-05-07T03:16:26;5.38;;;4.97;;
13807;SDS011;40769;51.512;5.494;2023-05-07T03:18:52;6.63;;;6.10;;
13807;SDS011;40769;51.512;5.494;2023-05-07T03:21:18;6.57;;;5.00;;
13807;SDS011;40769;51.512;5.494;2023-05-07T03:23:43;5.15;;;4.75;;
13807;SDS011;40769;51.512;5.494;2023-05-07T03:26:09;5.50;;;5.00;;
13807;SDS011;40769;51.512;5.494;2023-05-07T03:28:36;4.82;;;4.43;;
13807;SDS011;40769;51.512;5.494;2023-05-07T03:31:02;6.40;;;5.90;;
13807;SDS011;40769;51.512;5.494;2023-05-07T03:33:28;8.65;;;8.02;;
13807;SDS011;40769;51.512;5.494;2023-05-07T03:35:53;8.35;;;7.68;;
13807;SDS011;40769;51.512;5.494;2023-05-07T03:38:19;6.55;;;6.05;;
13807;SDS011;40769;51.512;5.494;2023-05-07T03:40:44;5.15;;;4.78;;
13807;SDS011;40769;51.512;5.494;2023-05-07T03:43:10;4.68;;;4.38;;
13807;SDS011;40769;51.512;5.494;2023-05-07T03:45:36;5.10;;;4.68;;
13807;SDS011;40769;51.512;5.494;2023-05-07T03:48:02;5.32;;;4.93;;
13807;SDS011;40769;51.512;5.494;2023-05-07T03:50:27;5.57;;;5.18;;
13807;SDS011;40769;51.512;5.494;2023-05-07T03:52:53;4.88;;;4.57;;
13807;SDS011;40769;51.512;5.494;2023-05-07T03:55:18;5.47;;;5.07;;
13807;SDS011;40769;51.512;5.494;2023-05-07T03:57:44;5.72;;;5.32;;
13807;SDS011;40769;51.512;5.494;2023-05-07T04:00:10;5.97;;;5.47;;
13807;SDS011;40769;51.512;5.494;2023-05-07T04:02:36;5.55;;;5.05;;
13807;SDS011;40769;51.512;5.494;2023-05-07T04:05:02;6.22;;;5.63;;
13807;SDS011;40769;51.512;5.494;2023-05-07T04:07:28;5.55;;;5.15;;
13807;SDS011;40769;51.512;5.494;2023-05-07T04:09:53;6.30;;;5.80;;
13807;SDS011;40769;51.512;5.494;2023-05-07T04:12:19;5.60;;;5.20;;
13807;SDS011;40769;51.512;5.494;2023-05-07T04:14:44;5.63;;;5.22;;
13807;SDS011;40769;51.512;5.494;2023-05-07T04:17:10;5.55;;;5.15;;
13807;SDS011;40769;51.512;5.494;2023-05-07T04:19:35;5.35;;;4.95;;
13807;SDS011;40769;51.512;5.494;2023-05-07T04:22:01;4.70;;;4.40;;
13807;SDS011;40769;51.512;5.494;2023-05-07T04:24:26;5.88;;;5.38;;
13807;SDS011;40769;51.512;5.494;2023-05-07T04:26:52;5.53;;;5.13;;
13807;SDS011;40769;51.512;5.494;2023-05-07T04:29:18;6.75;;;6.25;;
13807;SDS011;40769;51.512;5.494;2023-05-07T04:31:43;7.03;;;6.53;;
13807;SDS011;40769;51.512;5.494;2023-05-07T04:34:10;7.13;;;6.63;;
13807;SDS011;40769;51.512;5.494;2023-05-07T04:36:37;6.15;;;5.65;;
13807;SDS011;40769;51.512;5.494;2023-05-07T04:39:03;6.38;;;5.88;;
13807;SDS011;40769;51.512;5.494;2023-05-07T04:41:29;7.57;;;6.97;;
13807;SDS011;40769;51.512;5.494;2023-05-07T04:43:55;8.73;;;8.02;;
13807;SDS011;40769;51.512;5.494;2023-05-07T04:46:21;8.00;;;7.40;;
13807;SDS011;40769;51.512;5.494;2023-05-07T04:48:48;9.70;;;8.90;;
13807;SDS011;40769;51.512;5.494;2023-05-07T04:51:14;8.93;;;8.30;;
13807;SDS011;40769;51.512;5.494;2023-05-07T04:53:40;6.38;;;5.97;;
13807;SDS011;40769;51.512;5.494;2023-05-07T04:56:05;8.02;;;7.43;;
13807;SDS011;40769;51.512;5.494;2023-05-07T04:58:31;6.10;;;5.60;;
13807;SDS011;40769;51.512;5.494;2023-05-07T05:00:57;9.88;;;9.07;;
13807;SDS011;40769;51.512;5.494;2023-05-07T05:03:23;7.97;;;7.38;;
13807;SDS011;40769;51.512;5.494;2023-05-07T05:05:49;7.20;;;6.70;;
13807;SDS011;40769;51.512;5.494;2023-05-07T05:08:16;6.25;;;5.80;;
13807;SDS011;40769;51.512;5.494;2023-05-07T05:10:42;7.03;;;6.53;;
13807;SDS011;40769;51.512;5.494;2023-05-07T05:13:08;6.55;;;6.07;;
13807;SDS011;40769;51.512;5.494;2023-05-07T05:15:34;7.00;;;6.50;;
13807;SDS011;40769;51.512;5.494;2023-05-07T05:18:00;6.25;;;5.75;;
13807;SDS011;40769;51.512;5.494;2023-05-07T05:20:26;6.63;;;6.13;;
13807;SDS011;40769;51.512;5.494;2023-05-07T05:22:51;6.03;;;5.63;;
13807;SDS011;40769;51.512;5.494;2023-05-07T05:25:17;8.23;;;7.63;;
13807;SDS011;40769;51.512;5.494;2023-05-07T05:27:42;10.65;;;9.77;;
13807;SDS011;40769;51.512;5.494;2023-05-07T05:30:08;7.80;;;7.20;;
13807;SDS011;40769;51.512;5.494;2023-05-07T05:32:34;11.20;;;10.40;;
13807;SDS011;40769;51.512;5.494;2023-05-07T05:34:59;10.85;;;9.95;;
13807;SDS011;40769;51.512;5.494;2023-05-07T05:37:25;7.25;;;6.75;;
13807;SDS011;40769;51.512;5.494;2023-05-07T05:39:51;8.02;;;7.43;;
13807;SDS011;40769;51.512;5.494;2023-05-07T05:42:17;9.85;;;9.15;;
13807;SDS011;40769;51.512;5.494;2023-05-07T05:44:43;7.80;;;7.20;;
13807;SDS011;40769;51.512;5.494;2023-05-07T05:47:08;6.57;;;6.13;;
13807;SDS011;40769;51.512;5.494;2023-05-07T05:49:34;9.20;;;8.40;;
13807;SDS011;40769;51.512;5.494;2023-05-07T05:52:00;9.05;;;8.35;;
13807;SDS011;40769;51.512;5.494;2023-05-07T05:54:25;11.48;;;10.60;;
13807;SDS011;40769;51.512;5.494;2023-05-07T05:56:51;13.23;;;12.15;;
13807;SDS011;40769;51.512;5.494;2023-05-07T05:59:16;10.43;;;9.63;;
13807;SDS011;40769;51.512;5.494;2023-05-07T06:01:42;9.23;;;8.52;;
13807;SDS011;40769;51.512;5.494;2023-05-07T06:04:08;7.43;;;6.82;;
13807;SDS011;40769;51.512;5.494;2023-05-07T06:06:33;9.30;;;8.52;;
13807;SDS011;40769;51.512;5.494;2023-05-07T06:08:59;8.43;;;7.80;;
13807;SDS011;40769;51.512;5.494;2023-05-07T06:11:24;12.45;;;11.43;;
13807;SDS011;40769;51.512;5.494;2023-05-07T06:13:50;13.88;;;12.77;;
13807;SDS011;40769;51.512;5.494;2023-05-07T06:16:16;11.18;;;10.32;;
13807;SDS011;40769;51.512;5.494;2023-05-07T06:18:41;9.95;;;9.18;;
13807;SDS011;40769;51.512;5.494;2023-05-07T06:21:07;10.05;;;9.25;;
13807;SDS011;40769;51.512;5.494;2023-05-07T06:23:33;10.52;;;9.60;;
13807;SDS011;40769;51.512;5.494;2023-05-07T06:25:58;9.65;;;8.95;;
13807;SDS011;40769;51.512;5.494;2023-05-07T06:28:24;10.65;;;9.75;;
13807;SDS011;40769;51.512;5.494;2023-05-07T06:30:49;10.85;;;9.95;;
13807;SDS011;40769;51.512;5.494;2023-05-07T06:33:15;9.90;;;9.10;;
13807;SDS011;40769;51.512;5.494;2023-05-07T06:35:41;8.70;;;8.05;;
13807;SDS011;40769;51.512;5.494;2023-05-07T06:38:06;10.93;;;10.13;;
13807;SDS011;40769;51.512;5.494;2023-05-07T06:40:32;9.27;;;8.48;;
13807;SDS011;40769;51.512;5.494;2023-05-07T06:42:57;7.68;;;7.07;;
13807;SDS011;40769;51.512;5.494;2023-05-07T06:45:23;7.85;;;7.25;;
13807;SDS011;40769;51.512;5.494;2023-05-07T06:47:50;7.32;;;6.72;;
13807;SDS011;40769;51.512;5.494;2023-05-07T06:50:15;9.95;;;9.15;;
13807;SDS011;40769;51.512;5.494;2023-05-07T06:52:42;7.63;;;7.03;;
13807;SDS011;40769;51.512;5.494;2023-05-07T06:55:08;7.28;;;6.68;;
13807;SDS011;40769;51.512;5.494;2023-05-07T06:57:34;11.05;;;10.25;;
13807;SDS011;40769;51.512;5.494;2023-05-07T06:59:59;10.00;;;9.20;;
13807;SDS011;40769;51.512;5.494;2023-05-07T07:02:25;10.50;;;9.70;;
13807;SDS011;40769;51.512;5.494;2023-05-07T07:04:50;10.43;;;9.52;;
13807;SDS011;40769;51.512;5.494;2023-05-07T07:07:16;9.13;;;8.43;;
13807;SDS011;40769;51.512;5.494;2023-05-07T07:09:42;10.98;;;10.07;;
13807;SDS011;40769;51.512;5.494;2023-05-07T07:12:07;10.27;;;9.48;;
13807;SDS011;40769;51.512;5.494;2023-05-07T07:14:33;8.38;;;7.65;;
13807;SDS011;40769;51.512;5.494;2023-05-07T07:16:58;7.60;;;7.00;;
13807;SDS011;40769;51.512;5.494;2023-05-07T07:19:24;5.95;;;5.45;;
13807;SDS011;40769;51.512;5.494;2023-05-07T07:21:50;8.52;;;7.82;;
13807;SDS011;40769;51.512;5.494;2023-05-07T07:24:16;11.07;;;10.25;;
13807;SDS011;40769;51.512;5.494;2023-05-07T07:26:45;7.53;;;6.93;;
13807;SDS011;40769;51.512;5.494;2023-05-07T07:29:11;8.77;;;7.97;;
13807;SDS011;40769;51.512;5.494;2023-05-07T07:31:37;9.13;;;8.38;;
13807;SDS011;40769;51.512;5.494;2023-05-07T07:34:02;6.70;;;6.13;;
13807;SDS011;40769;51.512;5.494;2023-05-07T07:36:28;6.38;;;5.82;;
13807;SDS011;40769;51.512;5.494;2023-05-07T07:38:54;9.65;;;8.75;;
13807;SDS011;40769;51.512;5.494;2023-05-07T07:41:19;10.45;;;9.65;;
13807;SDS011;40769;51.512;5.494;2023-05-07T07:43:45;7.78;;;7.18;;
13807;SDS011;40769;51.512;5.494;2023-05-07T07:46:11;8.73;;;7.93;;
13807;SDS011;40769;51.512;5.494;2023-05-07T07:48:37;8.77;;;8.07;;
13807;SDS011;40769;51.512;5.494;2023-05-07T07:51:03;7.70;;;7.18;;
13807;SDS011;40769;51.512;5.494;2023-05-07T07:53:29;11.65;;;10.65;;
13807;SDS011;40769;51.512;5.494;2023-05-07T07:55:55;9.05;;;8.35;;
13807;SDS011;40769;51.512;5.494;2023-05-07T07:58:21;11.70;;;10.65;;
13807;SDS011;40769;51.512;5.494;2023-05-07T08:00:47;10.32;;;9.52;;
13807;SDS011;40769;51.512;5.494;2023-05-07T08:03:12;12.60;;;11.50;;
13807;SDS011;40769;51.512;5.494;2023-05-07T08:05:39;11.98;;;11.07;;
13807;SDS011;40769;51.512;5.494;2023-05-07T08:08:05;11.98;;;10.98;;
13807;SDS011;40769;51.512;5.494;2023-05-07T08:10:31;9.57;;;8.77;;
13807;SDS011;40769;51.512;5.494;2023-05-07T08:12:59;11.02;;;10.13;;
13807;SDS011;40769;51.512;5.494;2023-05-07T08:15:25;9.98;;;9.10;;
13807;SDS011;40769;51.512;5.494;2023-05-07T08:17:51;8.93;;;8.13;;
13807;SDS011;40769;51.512;5.494;2023-05-07T08:20:16;10.90;;;10.02;;
13807;SDS011;40769;51.512;5.494;2023-05-07T08:22:42;9.75;;;8.95;;
13807;SDS011;40769;51.512;5.494;2023-05-07T08:25:08;10.30;;;9.40;;
13807;SDS011;40769;51.512;5.494;2023-05-07T08:27:33;10.23;;;9.32;;
13807;SDS011;40769;51.512;5.494;2023-05-07T08:29:59;10.30;;;9.40;;
13807;SDS011;40769;51.512;5.494;2023-05-07T08:32:25;11.32;;;9.48;;
13807;SDS011;40769;51.512;5.494;2023-05-07T08:34:50;10.10;;;9.20;;
13807;SDS011;40769;51.512;5.494;2023-05-07T08:37:16;9.43;;;8.63;;
13807;SDS011;40769;51.512;5.494;2023-05-07T08:39:42;10.63;;;9.68;;
13807;SDS011;40769;51.512;5.494;2023-05-07T08:42:08;10.85;;;9.95;;
13807;SDS011;40769;51.512;5.494;2023-05-07T08:44:36;8.15;;;7.45;;
13807;SDS011;40769;51.512;5.494;2023-05-07T08:47:06;8.90;;;8.18;;
13807;SDS011;40769;51.512;5.494;2023-05-07T08:49:32;9.95;;;9.15;;
13807;SDS011;40769;51.512;5.494;2023-05-07T08:51:58;11.15;;;10.15;;
13807;SDS011;40769;51.512;5.494;2023-05-07T08:54:24;13.18;;;12.00;;
13807;SDS011;40769;51.512;5.494;2023-05-07T08:56:50;10.00;;;9.05;;
13807;SDS011;40769;51.512;5.494;2023-05-07T08:59:16;9.60;;;8.52;;
13807;SDS011;40769;51.512;5.494;2023-05-07T09:01:42;9.88;;;9.05;;
13807;SDS011;40769;51.512;5.494;2023-05-07T09:04:08;8.57;;;7.88;;
13807;SDS011;40769;51.512;5.494;2023-05-07T09:06:34;7.03;;;6.43;;
13807;SDS011;40769;51.512;5.494;2023-05-07T09:09:00;9.60;;;8.80;;
13807;SDS011;40769;51.512;5.494;2023-05-07T09:11:26;7.60;;;6.95;;
13807;SDS011;40769;51.512;5.494;2023-05-07T09:13:55;9.77;;;8.98;;
13807;SDS011;40769;51.512;5.494;2023-05-07T09:16:23;9.60;;;8.73;;
13807;SDS011;40769;51.512;5.494;2023-05-07T09:18:50;7.00;;;6.40;;
13807;SDS011;40769;51.512;5.494;2023-05-07T09:21:17;7.07;;;6.38;;
13807;SDS011;40769;51.512;5.494;2023-05-07T09:23:43;9.40;;;8.45;;
13807;SDS011;40769;51.512;5.494;2023-05-07T09:26:09;8.82;;;8.05;;
13807;SDS011;40769;51.512;5.494;2023-05-07T09:28:43;9.00;;;8.10;;
13807;SDS011;40769;51.512;5.494;2023-05-07T09:31:09;6.50;;;6.00;;
13807;SDS011;40769;51.512;5.494;2023-05-07T09:33:36;9.20;;;8.40;;
13807;SDS011;40769;51.512;5.494;2023-05-07T09:36:06;9.25;;;8.45;;
13807;SDS011;40769;51.512;5.494;2023-05-07T09:38:33;8.57;;;7.78;;
13807;SDS011;40769;51.512;5.494;2023-05-07T09:41:04;8.77;;;7.97;;
13807;SDS011;40769;51.512;5.494;2023-05-07T09:43:31;6.88;;;6.32;;
13807;SDS011;40769;51.512;5.494;2023-05-07T09:46:00;8.48;;;7.68;;
13807;SDS011;40769;51.512;5.494;2023-05-07T09:48:28;8.85;;;8.07;;
13807;SDS011;40769;51.512;5.494;2023-05-07T09:50:55;8.30;;;7.60;;
13807;SDS011;40769;51.512;5.494;2023-05-07T09:53:25;7.47;;;6.78;;
13807;SDS011;40769;51.512;5.494;2023-05-07T09:55:51;8.90;;;8.10;;
13807;SDS011;40769;51.512;5.494;2023-05-07T09:58:18;7.03;;;6.43;;
13807;SDS011;40769;51.512;5.494;2023-05-07T10:00:44;8.50;;;7.80;;
13807;SDS011;40769;51.512;5.494;2023-05-07T10:03:10;8.35;;;7.65;;
13807;SDS011;40769;51.512;5.494;2023-05-07T10:05:37;7.40;;;6.75;;
13807;SDS011;40769;51.512;5.494;2023-05-07T10:08:03;7.53;;;6.82;;
13807;SDS011;40769;51.512;5.494;2023-05-07T10:10:30;8.90;;;8.10;;
13807;SDS011;40769;51.512;5.494;2023-05-07T10:12:57;7.90;;;7.10;;
13807;SDS011;40769;51.512;5.494;2023-05-07T10:15:23;7.32;;;6.72;;
13807;SDS011;40769;51.512;5.494;2023-05-07T10:17:50;8.05;;;6.63;;
13807;SDS011;40769;51.512;5.494;2023-05-07T10:20:18;6.90;;;6.30;;
13807;SDS011;40769;51.512;5.494;2023-05-07T10:22:45;8.90;;;8.10;;
13807;SDS011;40769;51.512;5.494;2023-05-07T10:25:20;8.20;;;7.50;;
13807;SDS011;40769;51.512;5.494;2023-05-07T10:27:50;7.35;;;6.75;;
13807;SDS011;40769;51.512;5.494;2023-05-07T10:32:47;6.43;;;5.90;;
13807;SDS011;40769;51.512;5.494;2023-05-07T10:35:19;7.60;;;6.85;;
13807;SDS011;40769;51.512;5.494;2023-05-07T10:37:47;8.02;;;7.22;;
13807;SDS011;40769;51.512;5.494;2023-05-07T10:40:14;8.07;;;7.28;;
13807;SDS011;40769;51.512;5.494;2023-05-07T10:42:52;5.63;;;5.10;;
13807;SDS011;40769;51.512;5.494;2023-05-07T10:45:22;6.35;;;5.85;;
13807;SDS011;40769;51.512;5.494;2023-05-07T10:50:36;6.57;;;5.97;;
13807;SDS011;40769;51.512;5.494;2023-05-07T10:55:47;4.35;;;4.03;;
13807;SDS011;40769;51.512;5.494;2023-05-07T10:58:26;5.72;;;5.22;;
13807;SDS011;40769;51.512;5.494;2023-05-07T11:01:00;5.70;;;5.25;;
13807;SDS011;40769;51.512;5.494;2023-05-07T11:03:26;4.82;;;4.43;;
13807;SDS011;40769;51.512;5.494;2023-05-07T11:11:49;3.88;;;3.58;;
13807;SDS011;40769;51.512;5.494;2023-05-07T11:17:16;4.97;;;3.70;;
13807;SDS011;40769;51.512;5.494;2023-05-07T11:19:52;3.97;;;3.67;;
13807;SDS011;40769;51.512;5.494;2023-05-07T11:22:40;4.20;;;3.80;;
13807;SDS011;40769;51.512;5.494;2023-05-07T11:25:06;4.75;;;4.35;;
13807;SDS011;40769;51.512;5.494;2023-05-07T11:27:32;4.10;;;3.78;;
13807;SDS011;40769;51.512;5.494;2023-05-07T11:29:58;4.38;;;3.97;;
13807;SDS011;40769;51.512;5.494;2023-05-07T11:32:27;4.10;;;3.75;;
13807;SDS011;40769;51.512;5.494;2023-05-07T11:34:54;3.78;;;3.15;;
13807;SDS011;40769;51.512;5.494;2023-05-07T11:37:21;3.63;;;3.33;;
13807;SDS011;40769;51.512;5.494;2023-05-07T11:39:47;3.78;;;3.47;;
13807;SDS011;40769;51.512;5.494;2023-05-07T11:42:32;3.25;;;3.03;;
13807;SDS011;40769;51.512;5.494;2023-05-07T11:44:59;3.55;;;3.25;;
13807;SDS011;40769;51.512;5.494;2023-05-07T11:47:25;3.65;;;3.35;;
13807;SDS011;40769;51.512;5.494;2023-05-07T11:49:54;4.63;;;4.15;;
13807;SDS011;40769;51.512;5.494;2023-05-07T11:52:20;3.35;;;3.03;;
13807;SDS011;40769;51.512;5.494;2023-05-07T11:54:54;3.13;;;2.83;;
13807;SDS011;40769;51.512;5.494;2023-05-07T11:57:21;6.05;;;4.22;;
13807;SDS011;40769;51.512;5.494;2023-05-07T11:59:47;4.22;;;3.92;;
13807;SDS011;40769;51.512;5.494;2023-05-07T12:02:17;4.50;;;4.10;;
13807;SDS011;40769;51.512;5.494;2023-05-07T12:04:43;4.72;;;4.28;;
13807;SDS011;40769;51.512;5.494;2023-05-07T12:07:12;4.05;;;3.75;;
13807;SDS011;40769;51.512;5.494;2023-05-07T12:09:42;3.97;;;3.67;;
13807;SDS011;40769;51.512;5.494;2023-05-07T12:12:08;3.63;;;3.33;;
13807;SDS011;40769;51.512;5.494;2023-05-07T12:14:37;3.75;;;3.45;;
13807;SDS011;40769;51.512;5.494;2023-05-07T12:17:04;3.03;;;2.83;;
13807;SDS011;40769;51.512;5.494;2023-05-07T12:19:31;2.97;;;2.60;;
13807;SDS011;40769;51.512;5.494;2023-05-07T12:22:02;3.95;;;3.65;;
13807;SDS011;40769;51.512;5.494;2023-05-07T12:24:28;4.13;;;3.70;;
13807;SDS011;40769;51.512;5.494;2023-05-07T12:26:54;3.50;;;3.20;;
13807;SDS011;40769;51.512;5.494;2023-05-07T12:29:22;3.90;;;3.53;;
13807;SDS011;40769;51.512;5.494;2023-05-07T12:31:49;4.38;;;4.05;;
13807;SDS011;40769;51.512;5.494;2023-05-07T12:34:15;4.55;;;4.15;;
13807;SDS011;40769;51.512;5.494;2023-05-07T12:36:41;5.85;;;5.30;;
13807;SDS011;40769;51.512;5.494;2023-05-07T12:39:07;4.20;;;3.85;;
13807;SDS011;40769;51.512;5.494;2023-05-07T12:41:51;3.65;;;3.35;;
13807;SDS011;40769;51.512;5.494;2023-05-07T12:44:20;4.45;;;4.05;;
13807;SDS011;40769;51.512;5.494;2023-05-07T12:46:47;2.50;;;2.30;;
13807;SDS011;40769;51.512;5.494;2023-05-07T12:49:13;1.30;;;1.20;;
13807;SDS011;40769;51.512;5.494;2023-05-07T12:51:38;1.70;;;1.33;;
13807;SDS011;40769;51.512;5.494;2023-05-07T12:54:04;1.80;;;1.08;;
13807;SDS011;40769;51.512;5.494;2023-05-07T12:56:30;1.13;;;0.88;;
13807;SDS011;40769;51.512;5.494;2023-05-07T12:58:57;1.77;;;1.13;;
13807;SDS011;40769;51.512;5.494;2023-05-07T13:01:28;3.67;;;1.27;;
13807;SDS011;40769;51.512;5.494;2023-05-07T13:03:55;3.80;;;1.50;;
13807;SDS011;40769;51.512;5.494;2023-05-07T13:06:21;3.05;;;1.35;;
13807;SDS011;40769;51.512;5.494;2023-05-07T13:08:46;3.83;;;1.35;;
13807;SDS011;40769;51.512;5.494;2023-05-07T13:11:12;3.88;;;1.70;;
13807;SDS011;40769;51.512;5.494;2023-05-07T13:13:38;3.33;;;1.27;;
13807;SDS011;40769;51.512;5.494;2023-05-07T13:16:05;2.60;;;1.40;;
13807;SDS011;40769;51.512;5.494;2023-05-07T13:18:32;4.10;;;1.50;;
13807;SDS011;40769;51.512;5.494;2023-05-07T13:20:58;3.40;;;1.60;;
13807;SDS011;40769;51.512;5.494;2023-05-07T13:23:25;2.75;;;1.73;;
13807;SDS011;40769;51.512;5.494;2023-05-07T13:25:51;3.10;;;1.77;;
13807;SDS011;40769;51.512;5.494;2023-05-07T13:28:20;5.55;;;1.77;;
13807;SDS011;40769;51.512;5.494;2023-05-07T13:30:46;2.03;;;1.63;;
13807;SDS011;40769;51.512;5.494;2023-05-07T13:33:12;3.10;;;1.92;;
13807;SDS011;40769;51.512;5.494;2023-05-07T13:35:38;2.25;;;1.50;;
13807;SDS011;40769;51.512;5.494;2023-05-07T13:38:04;1.60;;;1.50;;
13807;SDS011;40769;51.512;5.494;2023-05-07T13:40:30;3.55;;;1.90;;
13807;SDS011;40769;51.512;5.494;2023-05-07T13:42:59;1.77;;;1.67;;
13807;SDS011;40769;51.512;5.494;2023-05-07T13:45:26;2.90;;;1.90;;
13807;SDS011;40769;51.512;5.494;2023-05-07T13:47:54;2.17;;;1.98;;
13807;SDS011;40769;51.512;5.494;2023-05-07T13:50:20;1.98;;;1.65;;
13807;SDS011;40769;51.512;5.494;2023-05-07T13:52:46;2.40;;;1.60;;
13807;SDS011;40769;51.512;5.494;2023-05-07T13:55:18;2.80;;;1.83;;
13807;SDS011;40769;51.512;5.494;2023-05-07T13:57:45;1.83;;;1.73;;
13807;SDS011;40769;51.512;5.494;2023-05-07T14:00:12;1.88;;;1.73;;
13807;SDS011;40769;51.512;5.494;2023-05-07T14:02:38;3.72;;;2.30;;
13807;SDS011;40769;51.512;5.494;2023-05-07T14:05:04;19.48;;;4.43;;
13807;SDS011;40769;51.512;5.494;2023-05-07T14:07:29;44.63;;;7.97;;
13807;SDS011;40769;51.512;5.494;2023-05-07T14:09:56;4.15;;;2.10;;
13807;SDS011;40769;51.512;5.494;2023-05-07T14:12:22;4.57;;;2.97;;
13807;SDS011;40769;51.512;5.494;2023-05-07T14:14:47;3.15;;;2.63;;
13807;SDS011;40769;51.512;5.494;2023-05-07T14:17:14;2.55;;;2.35;;
13807;SDS011;40769;51.512;5.494;2023-05-07T14:19:41;2.70;;;2.50;;
13807;SDS011;40769;51.512;5.494;2023-05-07T14:22:07;1.75;;;1.65;;
13807;SDS011;40769;51.512;5.494;2023-05-07T14:24:33;1.60;;;1.50;;
13807;SDS011;40769;51.512;5.494;2023-05-07T14:26:59;1.95;;;1.55;;
13807;SDS011;40769;51.512;5.494;2023-05-07T14:29:25;2.45;;;2.25;;
13807;SDS011;40769;51.512;5.494;2023-05-07T14:31:50;2.65;;;2.45;;
13807;SDS011;40769;51.512;5.494;2023-05-07T14:34:19;3.17;;;2.97;;
13807;SDS011;40769;51.512;5.494;2023-05-07T14:36:45;3.22;;;3.03;;
13807;SDS011;40769;51.512;5.494;2023-05-07T14:39:10;2.25;;;2.05;;
13807;SDS011;40769;51.512;5.494;2023-05-07T14:41:36;2.60;;;2.42;;
13807;SDS011;40769;51.512;5.494;2023-05-07T14:44:02;2.95;;;2.55;;
13807;SDS011;40769;51.512;5.494;2023-05-07T14:46:29;2.72;;;2.40;;
13807;SDS011;40769;51.512;5.494;2023-05-07T14:48:55;2.83;;;2.63;;
13807;SDS011;40769;51.512;5.494;2023-05-07T14:51:22;3.47;;;3.20;;
13807;SDS011;40769;51.512;5.494;2023-05-07T14:53:48;3.72;;;3.53;;
13807;SDS011;40769;51.512;5.494;2023-05-07T14:56:15;3.20;;;3.00;;
13807;SDS011;40769;51.512;5.494;2023-05-07T14:58:41;3.92;;;3.53;;